createdAt,value
2024-05-09T00:00:35.249Z,62.55
2024-05-09T00:03:07.106Z,62.49
2024-05-09T00:05:34.055Z,62.54
2024-05-09T00:08:00.807Z,62.38
2024-05-09T00:10:35.367Z,62.48
2024-05-09T00:13:04.850Z,62.30
2024-05-09T00:15:31.711Z,62.45
2024-05-09T00:17:58.490Z,62.58
2024-05-09T00:20:33.194Z,62.28
2024-05-09T00:23:07.060Z,62.18
2024-05-09T00:25:34.141Z,62.19
2024-05-09T00:28:00.840Z,62.14
2024-05-09T00:30:33.677Z,62.30
2024-05-09T00:33:03.532Z,62.17
2024-05-09T00:35:30.696Z,62.33
2024-05-09T00:37:57.412Z,62.32
2024-05-09T00:40:34.774Z,62.14
2024-05-09T00:43:05.993Z,62.15
2024-05-09T00:45:34.128Z,62.15
2024-05-09T00:48:05.110Z,62.23
2024-05-09T00:50:37.527Z,62.11
2024-05-09T00:53:06.737Z,62.13
2024-05-09T00:55:35.411Z,61.98
2024-05-09T00:58:03.143Z,62.15
2024-05-09T01:00:37.791Z,62.35
2024-05-09T01:03:07.139Z,61.92
2024-05-09T01:05:34.811Z,62.23
2024-05-09T01:08:02.308Z,62.26
2024-05-09T01:10:34.324Z,62.00
2024-05-09T01:13:03.836Z,61.91
2024-05-09T01:15:30.623Z,62.15
2024-05-09T01:17:58.124Z,62.07
2024-05-09T01:20:36.499Z,61.96
2024-05-09T01:23:08.987Z,61.72
2024-05-09T01:25:35.954Z,61.84
2024-05-09T01:28:02.516Z,61.78
2024-05-09T01:30:34.640Z,61.86
2024-05-09T01:33:04.663Z,61.92
2024-05-09T01:35:31.977Z,62.24
2024-05-09T01:37:58.688Z,61.71
2024-05-09T01:40:35.389Z,61.96
2024-05-09T01:43:04.955Z,61.64
2024-05-09T01:45:31.622Z,61.65
2024-05-09T01:47:58.512Z,61.74
2024-05-09T01:50:34.103Z,61.54
2024-05-09T01:53:05.598Z,61.67
2024-05-09T01:55:32.247Z,61.90
2024-05-09T01:57:58.800Z,61.48
2024-05-09T02:00:36.647Z,61.59
2024-05-09T02:03:14.590Z,61.38
2024-05-09T02:05:44.497Z,61.39
2024-05-09T02:08:15.656Z,61.56
2024-05-09T02:10:44.109Z,61.64
2024-05-09T02:13:10.966Z,61.45
2024-05-09T02:15:37.522Z,61.52
2024-05-09T02:18:04.734Z,61.43
2024-05-09T02:20:36.190Z,61.44
2024-05-09T02:23:06.009Z,61.60
2024-05-09T02:25:33.216Z,61.59
2024-05-09T02:27:59.936Z,61.34
2024-05-09T02:30:36.510Z,61.44
2024-05-09T02:33:08.010Z,61.35
2024-05-09T02:35:35.319Z,61.48
2024-05-09T02:38:02.118Z,61.13
2024-05-09T02:40:36.143Z,61.43
2024-05-09T02:43:05.989Z,61.26
2024-05-09T02:45:33.027Z,61.29
2024-05-09T02:47:59.923Z,61.25
2024-05-09T02:50:34.270Z,61.13
2024-05-09T02:53:05.946Z,61.17
2024-05-09T02:55:32.909Z,61.47
2024-05-09T02:57:59.595Z,61.38
2024-05-09T03:00:34.802Z,61.36
2024-05-09T03:03:07.623Z,61.35
2024-05-09T03:05:34.869Z,60.97
2024-05-09T03:08:01.710Z,61.10
2024-05-09T03:10:29.079Z,61.24
2024-05-09T03:13:05.892Z,61.01
2024-05-09T03:15:33.001Z,60.98
2024-05-09T03:18:00.933Z,61.09
2024-05-09T03:20:33.412Z,61.12
2024-05-09T03:23:02.302Z,60.87
2024-05-09T03:25:29.018Z,60.90
2024-05-09T03:27:55.625Z,60.74
2024-05-09T03:30:31.097Z,61.01
2024-05-09T03:33:10.425Z,60.91
2024-05-09T03:35:37.145Z,60.94
2024-05-09T03:38:03.937Z,60.96
2024-05-09T03:40:31.248Z,60.94
2024-05-09T03:42:58.737Z,60.85
2024-05-09T03:45:25.350Z,60.73
2024-05-09T03:47:52.427Z,61.04
2024-05-09T03:50:26.369Z,60.79
2024-05-09T03:53:00.357Z,60.59
2024-05-09T03:55:27.101Z,60.45
2024-05-09T03:57:53.679Z,60.70
2024-05-09T04:00:30.398Z,60.53
2024-05-09T04:03:02.565Z,60.73
2024-05-09T04:05:30.927Z,60.46
2024-05-09T04:07:57.779Z,60.62
2024-05-09T04:10:31.190Z,60.56
2024-05-09T04:13:00.337Z,60.39
2024-05-09T04:15:26.955Z,60.54
2024-05-09T04:17:53.775Z,60.57
2024-05-09T04:20:29.369Z,60.24
2024-05-09T04:23:04.187Z,60.36
2024-05-09T04:25:32.129Z,60.49
2024-05-09T04:27:58.646Z,60.37
2024-05-09T04:30:34.572Z,60.41
2024-05-09T04:33:06.074Z,60.26
2024-05-09T04:35:33.082Z,60.18
2024-05-09T04:38:00.586Z,60.31
2024-05-09T04:40:33.168Z,60.42
2024-05-09T04:43:03.050Z,60.33
2024-05-09T04:45:29.594Z,60.16
2024-05-09T04:47:56.423Z,60.20
2024-05-09T04:50:30.379Z,59.74
2024-05-09T04:53:03.454Z,59.90
2024-05-09T04:55:30.202Z,60.23
2024-05-09T04:57:56.778Z,59.93
2024-05-09T05:00:32.358Z,60.23
2024-05-09T05:03:06.912Z,59.92
2024-05-09T05:05:34.873Z,60.07
2024-05-09T05:08:01.619Z,59.93
2024-05-09T05:10:35.048Z,59.82
2024-05-09T05:13:22.684Z,59.84
2024-05-09T05:15:52.103Z,60.12
2024-05-09T05:18:19.148Z,60.18
2024-05-09T05:20:46.040Z,60.04
2024-05-09T05:23:15.004Z,59.88
2024-05-09T05:25:42.660Z,59.86
2024-05-09T05:28:09.421Z,59.86
2024-05-09T05:30:37.811Z,60.07
2024-05-09T05:33:05.919Z,59.91
2024-05-09T05:35:33.010Z,59.94
2024-05-09T05:37:59.969Z,59.83
2024-05-09T05:40:33.305Z,60.01
2024-05-09T05:43:04.719Z,59.82
2024-05-09T05:45:31.319Z,59.73
2024-05-09T05:47:57.993Z,59.90
2024-05-09T05:50:32.406Z,59.68
2024-05-09T05:53:03.395Z,59.65
2024-05-09T05:55:30.026Z,59.62
2024-05-09T05:57:56.613Z,59.65
2024-05-09T06:00:29.854Z,59.65
2024-05-09T06:03:04.715Z,59.68
2024-05-09T06:05:31.756Z,59.91
2024-05-09T06:07:58.520Z,59.91
2024-05-09T06:10:30.194Z,59.85
2024-05-09T06:13:04.110Z,59.91
2024-05-09T06:15:30.635Z,59.83
2024-05-09T06:17:57.330Z,59.85
2024-05-09T06:20:31.981Z,59.83
2024-05-09T06:23:03.538Z,59.78
2024-05-09T06:25:30.243Z,59.83
2024-05-09T06:27:56.956Z,59.89
2024-05-09T06:30:30.417Z,59.81
2024-05-09T06:33:05.814Z,60.17
2024-05-09T06:35:33.701Z,59.95
2024-05-09T06:38:00.958Z,60.02
2024-05-09T06:40:36.244Z,59.97
2024-05-09T06:43:05.908Z,60.15
2024-05-09T06:45:32.577Z,59.71
2024-05-09T06:47:59.478Z,59.71
2024-05-09T06:50:28.642Z,59.94
2024-05-09T06:53:02.254Z,59.85
2024-05-09T06:55:29.010Z,59.71
2024-05-09T06:57:55.535Z,59.79
2024-05-09T07:00:27.767Z,59.97
2024-05-09T07:03:05.763Z,59.78
2024-05-09T07:05:33.397Z,59.81
2024-05-09T07:08:00.162Z,59.66
2024-05-09T07:10:32.868Z,59.70
2024-05-09T07:13:01.872Z,59.95
2024-05-09T07:15:28.434Z,59.98
2024-05-09T07:17:55.218Z,59.94
2024-05-09T07:20:31.700Z,60.18
2024-05-09T07:23:02.847Z,59.85
2024-05-09T07:25:29.688Z,59.75
2024-05-09T07:27:56.507Z,59.81
2024-05-09T07:30:27.902Z,59.82
2024-05-09T07:33:00.338Z,59.81
2024-05-09T07:35:27.293Z,59.82
2024-05-09T07:37:54.196Z,59.86
2024-05-09T07:40:31.574Z,59.81
2024-05-09T07:43:06.464Z,59.63
2024-05-09T07:52:23.307Z,59.78
2024-05-09T07:53:38.455Z,59.86
2024-05-09T07:56:06.540Z,59.86
2024-05-09T07:58:33.307Z,59.65
2024-05-09T08:01:02.642Z,59.67
2024-05-09T08:03:29.539Z,59.71
2024-05-09T08:05:56.208Z,59.84
2024-05-09T08:08:23.313Z,59.44
2024-05-09T08:10:50.650Z,59.48
2024-05-09T08:13:17.391Z,59.80
2024-05-09T08:15:44.060Z,59.70
2024-05-09T08:18:11.024Z,59.74
2024-05-09T08:20:38.429Z,59.47
2024-05-09T08:23:05.124Z,59.78
2024-05-09T08:25:31.655Z,59.61
2024-05-09T08:27:58.264Z,59.60
2024-05-09T08:30:32.549Z,59.51
2024-05-09T08:33:04.635Z,59.60
2024-05-09T08:35:32.024Z,59.53
2024-05-09T08:37:59.031Z,59.43
2024-05-09T08:40:33.319Z,59.71
2024-05-09T08:43:02.882Z,59.50
2024-05-09T08:45:30.772Z,59.37
2024-05-09T08:48:01.368Z,59.26
2024-05-09T08:50:36.179Z,59.44
2024-05-09T08:53:05.871Z,59.47
2024-05-09T08:55:32.615Z,59.33
2024-05-09T08:58:01.410Z,59.36
2024-05-09T09:00:34.205Z,59.53
2024-05-09T09:03:07.419Z,59.32
2024-05-09T09:05:38.694Z,59.57
2024-05-09T09:08:07.888Z,59.14
2024-05-09T09:10:35.756Z,59.32
2024-05-09T09:13:04.748Z,59.28
2024-05-09T09:15:31.994Z,59.20
2024-05-09T09:17:59.965Z,59.44
2024-05-09T09:20:34.186Z,59.11
2024-05-09T09:23:03.906Z,59.23
2024-05-09T09:25:30.664Z,59.08
2024-05-09T09:27:58.111Z,59.23
2024-05-09T09:30:34.680Z,59.44
2024-05-09T09:33:04.721Z,59.54
2024-05-09T09:35:31.472Z,59.32
2024-05-09T09:38:02.472Z,59.51
2024-05-09T09:40:39.067Z,59.63
2024-05-09T09:43:23.385Z,59.62
2024-05-09T09:45:51.654Z,59.64
2024-05-09T09:48:21.219Z,59.46
2024-05-09T09:50:48.727Z,59.63
2024-05-09T09:53:16.410Z,59.46
2024-05-09T09:55:43.377Z,59.57
2024-05-09T09:58:13.485Z,59.77
2024-05-09T10:00:41.266Z,59.74
2024-05-09T10:03:08.140Z,59.52
2024-05-09T10:05:35.396Z,59.62
2024-05-09T10:08:06.729Z,59.47
2024-05-09T10:10:36.267Z,59.88
2024-05-09T10:13:04.304Z,59.76
2024-05-09T10:15:45.164Z,59.72
2024-05-09T10:18:11.922Z,59.71
2024-05-09T10:20:45.423Z,59.69
2024-05-09T10:23:32.411Z,59.67
2024-05-09T10:26:00.875Z,59.32
2024-05-09T10:28:36.098Z,59.54
2024-05-09T10:31:12.990Z,59.67
2024-05-09T10:33:52.249Z,59.63
2024-05-09T10:36:20.598Z,59.81
2024-05-09T10:38:49.227Z,59.52
2024-05-09T10:41:20.004Z,59.84
2024-05-09T10:43:47.421Z,59.75
2024-05-09T10:46:14.830Z,59.74
2024-05-09T10:48:43.218Z,59.95
2024-05-09T10:51:10.460Z,59.60
2024-05-09T10:53:41.309Z,59.70
2024-05-09T10:56:08.020Z,59.94
2024-05-09T10:58:34.667Z,59.66
2024-05-09T11:01:05.432Z,59.89
2024-05-09T11:03:33.192Z,59.96
2024-05-09T11:06:00.044Z,60.25
2024-05-09T11:08:27.152Z,60.11
2024-05-09T11:10:54.366Z,60.14
2024-05-09T11:13:30.835Z,60.25
2024-05-09T11:15:58.436Z,60.16
2024-05-09T11:18:27.933Z,60.08
2024-05-09T11:20:57.249Z,59.97
2024-05-09T11:23:30.463Z,60.01
2024-05-09T11:25:59.055Z,60.29
2024-05-09T11:28:28.240Z,59.96
2024-05-09T11:31:06.271Z,60.16
2024-05-09T11:33:36.443Z,60.38
2024-05-09T11:36:04.575Z,60.13
2024-05-09T11:38:31.623Z,60.28
2024-05-09T11:40:58.227Z,60.40
2024-05-09T11:43:24.835Z,60.48
2024-05-09T11:45:51.623Z,60.51
2024-05-09T11:48:18.332Z,60.28
2024-05-09T11:50:44.876Z,60.32
2024-05-09T11:53:12.298Z,60.29
2024-05-09T11:55:38.920Z,60.29
2024-05-09T11:58:05.918Z,60.25
2024-05-09T12:00:36.915Z,60.59
2024-05-09T12:03:07.954Z,60.39
2024-05-09T12:05:34.863Z,60.64
2024-05-09T12:08:01.995Z,60.38
2024-05-09T12:12:58.240Z,60.54
2024-05-09T12:15:24.839Z,60.49
2024-05-09T12:17:51.575Z,60.53
2024-05-09T12:20:25.809Z,60.73
2024-05-09T12:22:59.584Z,60.61
2024-05-09T12:25:26.274Z,60.75
2024-05-09T12:27:53.020Z,60.57
2024-05-09T12:30:32.184Z,60.73
2024-05-09T12:33:04.123Z,60.67
2024-05-09T12:35:30.907Z,60.77
2024-05-09T12:37:57.484Z,60.65
2024-05-09T12:40:34.051Z,60.63
2024-05-09T12:43:04.030Z,60.70
2024-05-09T12:45:30.748Z,60.78
2024-05-09T12:47:57.529Z,60.96
2024-05-09T12:50:31.084Z,61.06
2024-05-09T12:52:59.594Z,60.82
2024-05-09T12:55:26.971Z,60.84
2024-05-09T12:57:54.714Z,61.14
2024-05-09T13:00:28.134Z,60.99
2024-05-09T13:03:00.294Z,61.27
2024-05-09T13:05:27.381Z,61.37
2024-05-09T13:07:54.146Z,61.50
2024-05-09T13:10:29.003Z,61.50
2024-05-09T13:12:59.277Z,61.33
2024-05-09T13:15:25.945Z,61.67
2024-05-09T13:17:52.599Z,61.78
2024-05-09T13:20:26.427Z,61.63
2024-05-09T13:23:00.642Z,61.67
2024-05-09T13:25:27.177Z,61.50
2024-05-09T13:27:53.791Z,61.53
2024-05-09T13:30:29.033Z,61.50
2024-05-09T13:33:02.565Z,61.87
2024-05-09T13:35:29.291Z,61.96
2024-05-09T13:37:56.184Z,61.84
2024-05-09T13:40:31.771Z,61.82
2024-05-09T13:43:01.875Z,61.90
2024-05-09T13:45:28.643Z,62.11
2024-05-09T13:47:55.503Z,62.32
2024-05-09T13:50:31.002Z,62.00
2024-05-09T13:53:01.804Z,61.97
2024-05-09T13:55:28.488Z,62.16
2024-05-09T13:57:55.425Z,62.22
2024-05-09T14:00:37.601Z,61.83
2024-05-09T14:03:09.171Z,62.13
2024-05-09T14:05:36.055Z,62.22
2024-05-09T14:08:03.124Z,62.22
2024-05-09T14:10:31.881Z,62.58
2024-05-09T14:12:59.644Z,62.35
2024-05-09T14:15:26.264Z,62.12
2024-05-09T14:17:52.974Z,62.27
2024-05-09T14:20:29.844Z,62.25
2024-05-09T14:22:58.894Z,62.36
2024-05-09T14:25:28.291Z,62.45
2024-05-09T14:27:55.377Z,62.10
2024-05-09T14:30:30.645Z,62.48
2024-05-09T14:33:03.758Z,62.16
2024-05-09T14:35:30.591Z,62.15
2024-05-09T14:37:57.213Z,62.48
2024-05-09T14:42:53.267Z,62.37
2024-05-09T14:45:19.919Z,62.24
2024-05-09T14:47:46.789Z,62.17
2024-05-09T14:50:19.628Z,62.47
2024-05-09T14:52:54.075Z,62.42
2024-05-09T14:55:20.632Z,62.27
2024-05-09T14:57:47.263Z,62.47
2024-05-09T15:00:21.094Z,62.27
2024-05-09T15:02:52.963Z,62.49
2024-05-09T15:05:19.766Z,62.52
2024-05-09T15:07:46.504Z,62.52
2024-05-09T15:10:20.396Z,62.70
2024-05-09T15:12:50.575Z,62.53
2024-05-09T15:15:17.749Z,62.50
2024-05-09T15:20:16.996Z,62.49
2024-05-09T15:22:46.897Z,62.42
2024-05-09T15:25:13.813Z,62.35
2024-05-09T15:27:40.529Z,62.47
2024-05-09T15:30:10.704Z,62.27
2024-05-09T15:32:37.608Z,62.52
2024-05-09T15:35:05.478Z,62.39
2024-05-09T15:37:32.380Z,62.63
2024-05-09T15:39:59.186Z,62.90
2024-05-09T15:42:25.776Z,62.49
2024-05-09T15:44:53.079Z,62.72
2024-05-09T15:47:22.723Z,62.88
2024-05-09T15:49:49.455Z,62.96
2024-05-09T15:52:17.748Z,63.41
2024-05-09T15:54:44.418Z,63.48
2024-05-09T15:57:11.702Z,63.42
2024-05-09T15:59:38.426Z,63.13
2024-05-09T16:02:05.894Z,63.49
2024-05-09T16:04:32.654Z,63.15
2024-05-09T16:06:59.480Z,63.31
2024-05-09T16:09:26.187Z,63.37
2024-05-09T16:11:52.784Z,63.57
2024-05-09T16:14:19.358Z,63.55
2024-05-09T16:16:46.465Z,63.72
2024-05-09T16:19:13.420Z,63.69
2024-05-09T16:21:40.253Z,63.33
2024-05-09T16:24:06.809Z,63.46
2024-05-09T16:26:33.417Z,63.32
2024-05-09T16:29:00.028Z,63.40
2024-05-09T16:31:26.809Z,63.51
2024-05-09T16:33:53.559Z,63.89
2024-05-09T16:36:20.537Z,63.74
2024-05-09T16:38:47.176Z,63.63
2024-05-09T16:41:15.424Z,63.48
2024-05-09T16:43:41.969Z,63.51
2024-05-09T16:46:11.622Z,63.79
2024-05-09T16:48:40.801Z,63.80
2024-05-09T16:51:09.663Z,63.66
2024-05-09T16:53:36.298Z,63.79
2024-05-09T16:56:03.081Z,63.92
2024-05-09T16:58:30.006Z,63.77
2024-05-09T17:00:56.685Z,63.89
2024-05-09T17:03:23.700Z,63.99
2024-05-09T17:05:50.597Z,63.98
2024-05-09T17:08:20.723Z,64.05
2024-05-09T17:10:50.502Z,64.04
2024-05-09T17:13:17.716Z,64.08
2024-05-09T17:15:44.528Z,64.17
2024-05-09T17:18:11.348Z,64.04
2024-05-09T17:20:38.227Z,64.10
2024-05-09T17:23:12.639Z,64.44
2024-05-09T17:25:40.347Z,64.26
2024-05-09T17:28:08.498Z,64.19
2024-05-09T17:30:38.373Z,64.35
2024-05-09T17:33:09.296Z,64.36
2024-05-09T17:35:37.540Z,64.30
2024-05-09T17:38:07.605Z,64.51
2024-05-09T17:40:36.816Z,64.14
2024-05-09T17:43:06.429Z,64.34
2024-05-09T17:45:34.468Z,64.53
2024-05-09T17:48:01.489Z,64.44
2024-05-09T17:50:35.101Z,64.49
2024-05-09T17:53:04.397Z,64.29
2024-05-09T17:55:31.272Z,64.39
2024-05-09T17:57:58.219Z,64.50
2024-05-09T18:00:36.255Z,64.33
2024-05-09T18:03:06.623Z,64.63
2024-05-09T18:05:35.209Z,64.38
2024-05-09T18:08:02.281Z,64.34
2024-05-09T18:10:35.468Z,64.52
2024-05-09T18:13:06.078Z,64.34
2024-05-09T18:15:33.174Z,64.46
2024-05-09T18:18:00.473Z,64.44
2024-05-09T18:20:37.210Z,64.23
2024-05-09T18:23:09.648Z,64.32
2024-05-09T18:25:36.188Z,64.53
2024-05-09T18:28:03.108Z,64.42
2024-05-09T18:30:34.766Z,64.50
2024-05-09T18:33:04.326Z,64.72
2024-05-09T18:35:31.570Z,64.42
2024-05-09T18:37:58.239Z,64.53
2024-05-09T18:40:32.820Z,64.50
2024-05-09T18:43:03.389Z,64.57
2024-05-09T18:45:30.706Z,64.39
2024-05-09T18:47:57.895Z,64.59
2024-05-09T18:50:33.733Z,64.30
2024-05-09T18:53:05.928Z,64.32
2024-05-09T18:55:32.602Z,64.34
2024-05-09T18:57:59.199Z,64.65
2024-05-09T19:00:33.981Z,64.63
2024-05-09T19:03:05.332Z,64.31
2024-05-09T19:05:33.300Z,64.54
2024-05-09T19:08:00.287Z,64.63
2024-05-09T19:10:33.659Z,64.47
2024-05-09T19:13:04.404Z,64.60
2024-05-09T19:15:34.996Z,64.71
2024-05-09T19:18:01.715Z,64.54
2024-05-09T19:20:33.621Z,64.62
2024-05-09T19:23:01.925Z,64.46
2024-05-09T19:25:28.450Z,64.38
2024-05-09T19:27:55.113Z,64.54
2024-05-09T19:30:30.048Z,64.58
2024-05-09T19:33:05.027Z,64.38
2024-05-09T19:35:32.329Z,64.54
2024-05-09T19:37:59.160Z,64.45
2024-05-09T19:40:31.294Z,64.53
2024-05-09T19:43:00.176Z,64.58
2024-05-09T19:45:26.791Z,64.62
2024-05-09T19:47:53.648Z,64.62
2024-05-09T19:50:27.036Z,64.67
2024-05-09T19:53:02.867Z,64.35
2024-05-09T19:55:29.579Z,64.48
2024-05-09T19:57:56.266Z,64.56
2024-05-09T20:00:29.434Z,64.45
2024-05-09T20:03:02.204Z,64.54
2024-05-09T20:05:31.219Z,64.67
2024-05-09T20:07:58.166Z,64.43
2024-05-09T20:10:31.061Z,64.54
2024-05-09T20:12:59.527Z,64.46
2024-05-09T20:15:26.255Z,64.53
2024-05-09T20:17:53.682Z,64.62
2024-05-09T20:20:28.648Z,64.45
2024-05-09T20:23:03.141Z,64.34
2024-05-09T20:25:30.038Z,64.42
2024-05-09T20:27:56.725Z,64.67
2024-05-09T20:30:30.572Z,64.39
2024-05-09T20:33:00.092Z,64.39
2024-05-09T20:35:27.034Z,64.29
2024-05-09T20:37:53.737Z,64.62
2024-05-09T20:42:55.302Z,64.45
2024-05-09T20:45:21.839Z,64.48
2024-05-09T20:47:49.657Z,64.66
2024-05-09T20:50:23.971Z,64.32
2024-05-09T20:52:59.300Z,64.23
2024-05-09T20:55:26.538Z,64.40
2024-05-09T20:57:53.080Z,64.46
2024-05-09T21:00:25.931Z,64.38
2024-05-09T21:05:27.503Z,64.04
2024-05-09T21:07:54.098Z,64.33
2024-05-09T21:10:22.814Z,64.10
2024-05-09T21:12:49.839Z,64.13
2024-05-09T21:15:16.440Z,64.25
2024-05-09T21:17:43.241Z,64.18
2024-05-09T21:20:16.903Z,64.17
2024-05-09T21:22:46.682Z,64.27
2024-05-09T21:25:13.310Z,64.05
2024-05-09T21:27:39.957Z,63.98
2024-05-09T21:30:10.325Z,64.23
2024-05-09T21:32:42.518Z,64.14
2024-05-09T21:35:09.133Z,63.94
2024-05-09T21:37:35.648Z,63.95
2024-05-09T21:40:06.843Z,64.12
2024-05-09T21:42:35.580Z,64.05
2024-05-09T21:45:02.207Z,63.92
2024-05-09T21:47:28.940Z,63.82
2024-05-09T21:49:55.611Z,64.12
2024-05-09T21:52:22.183Z,63.81
2024-05-09T21:54:48.860Z,63.77
2024-05-09T21:57:15.427Z,64.01
2024-05-09T21:59:42.042Z,63.98
2024-05-09T22:02:09.091Z,63.96
2024-05-09T22:04:36.058Z,63.78
2024-05-09T22:07:04.675Z,63.77
2024-05-09T22:09:31.345Z,63.83
2024-05-09T22:11:58.127Z,63.82
2024-05-09T22:14:25.486Z,63.75
2024-05-09T22:16:52.050Z,63.79
2024-05-09T22:19:18.723Z,63.68
2024-05-09T22:21:45.361Z,63.84
2024-05-09T22:24:11.908Z,63.78
2024-05-09T22:26:38.433Z,63.75
2024-05-09T22:29:06.091Z,63.94
2024-05-09T22:31:32.652Z,63.66
2024-05-09T22:33:59.394Z,63.71
2024-05-09T22:36:26.022Z,63.78
2024-05-09T22:38:52.532Z,63.81
2024-05-09T22:41:19.204Z,63.63
2024-05-09T22:43:45.991Z,63.81
2024-05-09T22:46:12.578Z,64.03
2024-05-09T22:48:39.476Z,63.55
2024-05-09T22:51:06.178Z,63.68
2024-05-09T22:53:32.678Z,63.46
2024-05-09T22:55:59.199Z,63.50
2024-05-09T22:58:26.058Z,63.83
2024-05-09T23:00:52.842Z,63.51
2024-05-09T23:03:21.534Z,63.58
2024-05-09T23:05:48.448Z,63.72
2024-05-09T23:08:14.975Z,63.44
2024-05-09T23:10:41.535Z,63.64
2024-05-09T23:13:08.496Z,63.74
2024-05-09T23:15:36.308Z,63.49
2024-05-09T23:18:02.973Z,63.79
2024-05-09T23:20:36.676Z,63.66
2024-05-09T23:23:06.698Z,63.51
2024-05-09T23:25:33.386Z,63.64
2024-05-09T23:28:00.086Z,63.85
2024-05-09T23:30:37.042Z,63.89
2024-05-09T23:33:06.976Z,64.08
2024-05-09T23:35:33.699Z,63.65
2024-05-09T23:38:00.236Z,63.92
2024-05-09T23:40:35.089Z,63.81
2024-05-09T23:43:05.754Z,63.69
2024-05-09T23:45:32.345Z,63.95
2024-05-09T23:47:58.966Z,63.86
2024-05-09T23:50:33.591Z,64.20
2024-05-09T23:53:03.213Z,63.80
2024-05-09T23:55:31.142Z,63.79
2024-05-09T23:57:57.730Z,63.88
